sensor_id;sensor_type;location;lat;lon;timestamp;P1;durP1;ratioP1;P2;durP2;ratioP2
17741;SDS011;8993;51.822;-2.268;2023-04-03T00:00:32;9.70;;;2.31;;
17741;SDS011;8993;51.822;-2.268;2023-04-03T00:05:36;11.72;;;2.31;;
17741;SDS011;8993;51.822;-2.268;2023-04-03T00:10:40;9.60;;;2.00;;
17741;SDS011;8993;51.822;-2.268;2023-04-03T00:15:45;11.43;;;2.47;;
17741;SDS011;8993;51.822;-2.268;2023-04-03T00:20:49;9.65;;;1.91;;
17741;SDS011;8993;51.822;-2.268;2023-04-03T00:25:53;8.35;;;1.85;;
17741;SDS011;8993;51.822;-2.268;2023-04-03T00:30:58;10.39;;;1.90;;
17741;SDS011;8993;51.822;-2.268;2023-04-03T00:36:05;7.95;;;1.89;;
17741;SDS011;8993;51.822;-2.268;2023-04-03T00:41:06;10.34;;;1.83;;
17741;SDS011;8993;51.822;-2.268;2023-04-03T00:46:10;11.29;;;2.24;;
17741;SDS011;8993;51.822;-2.268;2023-04-03T00:51:16;10.87;;;2.16;;
17741;SDS011;8993;51.822;-2.268;2023-04-03T00:56:19;11.07;;;2.15;;
17741;SDS011;8993;51.822;-2.268;2023-04-03T01:01:24;13.08;;;2.45;;
17741;SDS011;8993;51.822;-2.268;2023-04-03T01:06:28;9.79;;;2.45;;
17741;SDS011;8993;51.822;-2.268;2023-04-03T01:11:32;14.88;;;2.76;;
17741;SDS011;8993;51.822;-2.268;2023-04-03T01:16:36;9.98;;;2.47;;
17741;SDS011;8993;51.822;-2.268;2023-04-03T01:21:52;10.08;;;2.26;;
17741;SDS011;8993;51.822;-2.268;2023-04-03T01:26:46;8.84;;;2.37;;
17741;SDS011;8993;51.822;-2.268;2023-04-03T01:31:51;13.29;;;2.54;;
17741;SDS011;8993;51.822;-2.268;2023-04-03T01:36:55;14.61;;;2.86;;
17741;SDS011;8993;51.822;-2.268;2023-04-03T01:41:59;10.41;;;2.26;;
17741;SDS011;8993;51.822;-2.268;2023-04-03T01:47:05;11.95;;;2.27;;
17741;SDS011;8993;51.822;-2.268;2023-04-03T01:52:09;11.28;;;2.13;;
17741;SDS011;8993;51.822;-2.268;2023-04-03T01:57:13;9.29;;;1.92;;
17741;SDS011;8993;51.822;-2.268;2023-04-03T02:02:17;8.81;;;1.93;;
17741;SDS011;8993;51.822;-2.268;2023-04-03T02:07:21;7.26;;;1.87;;
17741;SDS011;8993;51.822;-2.268;2023-04-03T02:12:25;10.30;;;2.11;;
17741;SDS011;8993;51.822;-2.268;2023-04-03T02:17:29;8.18;;;2.56;;
17741;SDS011;8993;51.822;-2.268;2023-04-03T02:22:34;9.85;;;2.38;;
17741;SDS011;8993;51.822;-2.268;2023-04-03T02:27:37;6.69;;;1.90;;
17741;SDS011;8993;51.822;-2.268;2023-04-03T02:32:41;8.64;;;2.05;;
17741;SDS011;8993;51.822;-2.268;2023-04-03T02:37:45;6.64;;;1.80;;
17741;SDS011;8993;51.822;-2.268;2023-04-03T02:42:49;9.71;;;2.25;;
17741;SDS011;8993;51.822;-2.268;2023-04-03T02:47:53;7.61;;;2.11;;
17741;SDS011;8993;51.822;-2.268;2023-04-03T02:52:57;10.33;;;2.19;;
17741;SDS011;8993;51.822;-2.268;2023-04-03T02:58:01;9.56;;;2.58;;
17741;SDS011;8993;51.822;-2.268;2023-04-03T03:03:06;12.11;;;3.24;;
17741;SDS011;8993;51.822;-2.268;2023-04-03T03:08:10;13.79;;;3.70;;
17741;SDS011;8993;51.822;-2.268;2023-04-03T03:13:14;8.68;;;3.00;;
17741;SDS011;8993;51.822;-2.268;2023-04-03T03:18:19;7.61;;;2.40;;
17741;SDS011;8993;51.822;-2.268;2023-04-03T03:23:24;11.68;;;3.13;;
17741;SDS011;8993;51.822;-2.268;2023-04-03T03:28:28;14.26;;;3.98;;
17741;SDS011;8993;51.822;-2.268;2023-04-03T03:33:32;13.37;;;3.91;;
17741;SDS011;8993;51.822;-2.268;2023-04-03T03:38:36;13.42;;;3.86;;
17741;SDS011;8993;51.822;-2.268;2023-04-03T03:43:41;12.72;;;2.77;;
17741;SDS011;8993;51.822;-2.268;2023-04-03T03:48:45;11.07;;;2.53;;
17741;SDS011;8993;51.822;-2.268;2023-04-03T03:53:49;11.76;;;2.82;;
17741;SDS011;8993;51.822;-2.268;2023-04-03T03:58:54;14.59;;;3.40;;
17741;SDS011;8993;51.822;-2.268;2023-04-03T04:03:58;12.34;;;3.35;;
17741;SDS011;8993;51.822;-2.268;2023-04-03T04:09:02;9.85;;;2.61;;
17741;SDS011;8993;51.822;-2.268;2023-04-03T04:14:07;10.59;;;2.81;;
17741;SDS011;8993;51.822;-2.268;2023-04-03T04:19:11;10.93;;;3.27;;
17741;SDS011;8993;51.822;-2.268;2023-04-03T04:24:15;12.86;;;4.09;;
17741;SDS011;8993;51.822;-2.268;2023-04-03T04:29:20;10.44;;;3.52;;
17741;SDS011;8993;51.822;-2.268;2023-04-03T04:34:24;14.27;;;4.53;;
17741;SDS011;8993;51.822;-2.268;2023-04-03T04:39:28;8.72;;;3.57;;
17741;SDS011;8993;51.822;-2.268;2023-04-03T04:44:32;9.29;;;3.66;;
17741;SDS011;8993;51.822;-2.268;2023-04-03T04:49:37;11.20;;;3.48;;
17741;SDS011;8993;51.822;-2.268;2023-04-03T04:54:41;9.67;;;3.89;;
17741;SDS011;8993;51.822;-2.268;2023-04-03T04:59:45;12.58;;;4.69;;
17741;SDS011;8993;51.822;-2.268;2023-04-03T05:04:50;10.30;;;3.73;;
17741;SDS011;8993;51.822;-2.268;2023-04-03T05:09:54;9.98;;;3.73;;
17741;SDS011;8993;51.822;-2.268;2023-04-03T05:14:59;12.61;;;4.08;;
17741;SDS011;8993;51.822;-2.268;2023-04-03T05:20:03;11.26;;;3.69;;
17741;SDS011;8993;51.822;-2.268;2023-04-03T05:25:08;10.21;;;3.72;;
17741;SDS011;8993;51.822;-2.268;2023-04-03T05:30:12;11.87;;;3.75;;
17741;SDS011;8993;51.822;-2.268;2023-04-03T05:35:17;14.27;;;5.25;;
17741;SDS011;8993;51.822;-2.268;2023-04-03T05:40:22;20.40;;;7.06;;
17741;SDS011;8993;51.822;-2.268;2023-04-03T05:45:26;13.51;;;4.67;;
17741;SDS011;8993;51.822;-2.268;2023-04-03T05:50:30;10.49;;;3.89;;
17741;SDS011;8993;51.822;-2.268;2023-04-03T05:55:34;13.72;;;5.00;;
17741;SDS011;8993;51.822;-2.268;2023-04-03T06:00:39;10.76;;;4.05;;
17741;SDS011;8993;51.822;-2.268;2023-04-03T06:05:43;13.49;;;4.94;;
17741;SDS011;8993;51.822;-2.268;2023-04-03T06:10:50;26.64;;;8.20;;
17741;SDS011;8993;51.822;-2.268;2023-04-03T06:15:54;33.06;;;12.74;;
17741;SDS011;8993;51.822;-2.268;2023-04-03T06:20:58;29.57;;;11.21;;
17741;SDS011;8993;51.822;-2.268;2023-04-03T06:26:03;24.37;;;9.20;;
17741;SDS011;8993;51.822;-2.268;2023-04-03T06:31:07;22.58;;;8.69;;
17741;SDS011;8993;51.822;-2.268;2023-04-03T06:36:11;25.14;;;9.06;;
17741;SDS011;8993;51.822;-2.268;2023-04-03T06:41:15;25.91;;;9.87;;
17741;SDS011;8993;51.822;-2.268;2023-04-03T06:46:20;23.22;;;9.33;;
17741;SDS011;8993;51.822;-2.268;2023-04-03T06:51:23;24.43;;;9.69;;
17741;SDS011;8993;51.822;-2.268;2023-04-03T06:56:27;19.05;;;8.73;;
17741;SDS011;8993;51.822;-2.268;2023-04-03T07:01:31;21.85;;;8.59;;
17741;SDS011;8993;51.822;-2.268;2023-04-03T07:06:35;24.23;;;9.51;;
17741;SDS011;8993;51.822;-2.268;2023-04-03T07:11:39;19.24;;;7.92;;
17741;SDS011;8993;51.822;-2.268;2023-04-03T07:16:43;17.09;;;7.41;;
17741;SDS011;8993;51.822;-2.268;2023-04-03T07:21:47;19.24;;;7.02;;
17741;SDS011;8993;51.822;-2.268;2023-04-03T07:26:51;18.92;;;7.00;;
17741;SDS011;8993;51.822;-2.268;2023-04-03T07:31:56;19.64;;;6.26;;
17741;SDS011;8993;51.822;-2.268;2023-04-03T07:37:00;16.40;;;5.31;;
17741;SDS011;8993;51.822;-2.268;2023-04-03T07:42:05;17.94;;;4.81;;
17741;SDS011;8993;51.822;-2.268;2023-04-03T07:47:08;14.17;;;4.45;;
17741;SDS011;8993;51.822;-2.268;2023-04-03T07:52:12;17.32;;;3.51;;
17741;SDS011;8993;51.822;-2.268;2023-04-03T07:57:16;13.22;;;3.80;;
17741;SDS011;8993;51.822;-2.268;2023-04-03T08:02:20;14.06;;;3.58;;
17741;SDS011;8993;51.822;-2.268;2023-04-03T08:07:24;12.43;;;3.11;;
17741;SDS011;8993;51.822;-2.268;2023-04-03T08:12:28;14.09;;;2.76;;
17741;SDS011;8993;51.822;-2.268;2023-04-03T08:17:32;14.19;;;2.57;;
17741;SDS011;8993;51.822;-2.268;2023-04-03T08:22:36;15.09;;;2.64;;
17741;SDS011;8993;51.822;-2.268;2023-04-03T08:27:40;11.23;;;2.38;;
17741;SDS011;8993;51.822;-2.268;2023-04-03T08:32:44;15.79;;;2.59;;
17741;SDS011;8993;51.822;-2.268;2023-04-03T08:37:48;16.00;;;2.58;;
17741;SDS011;8993;51.822;-2.268;2023-04-03T08:42:56;13.86;;;2.15;;
17741;SDS011;8993;51.822;-2.268;2023-04-03T08:47:57;9.86;;;1.81;;
17741;SDS011;8993;51.822;-2.268;2023-04-03T08:53:00;11.02;;;1.19;;
17741;SDS011;8993;51.822;-2.268;2023-04-03T08:58:05;9.27;;;1.09;;
17741;SDS011;8993;51.822;-2.268;2023-04-03T09:03:11;9.41;;;1.14;;
17741;SDS011;8993;51.822;-2.268;2023-04-03T09:08:14;13.54;;;1.32;;
17741;SDS011;8993;51.822;-2.268;2023-04-03T09:13:20;12.88;;;1.17;;
17741;SDS011;8993;51.822;-2.268;2023-04-03T09:18:21;8.62;;;1.13;;
17741;SDS011;8993;51.822;-2.268;2023-04-03T09:23:27;8.57;;;1.09;;
17741;SDS011;8993;51.822;-2.268;2023-04-03T09:28:29;9.31;;;1.17;;
17741;SDS011;8993;51.822;-2.268;2023-04-03T09:33:33;8.54;;;1.07;;
17741;SDS011;8993;51.822;-2.268;2023-04-03T09:38:37;11.46;;;1.27;;
17741;SDS011;8993;51.822;-2.268;2023-04-03T09:43:41;10.93;;;1.08;;
17741;SDS011;8993;51.822;-2.268;2023-04-03T09:48:56;6.68;;;1.15;;
17741;SDS011;8993;51.822;-2.268;2023-04-03T09:53:49;8.48;;;1.30;;
17741;SDS011;8993;51.822;-2.268;2023-04-03T09:59:05;7.62;;;1.17;;
17741;SDS011;8993;51.822;-2.268;2023-04-03T10:04:04;7.53;;;1.25;;
17741;SDS011;8993;51.822;-2.268;2023-04-03T10:09:03;6.94;;;1.08;;
17741;SDS011;8993;51.822;-2.268;2023-04-03T10:14:10;7.29;;;1.17;;
17741;SDS011;8993;51.822;-2.268;2023-04-03T10:19:14;10.09;;;1.29;;
17741;SDS011;8993;51.822;-2.268;2023-04-03T10:24:14;9.49;;;1.12;;
17741;SDS011;8993;51.822;-2.268;2023-04-03T10:29:21;7.68;;;1.07;;
17741;SDS011;8993;51.822;-2.268;2023-04-03T10:34:23;8.64;;;1.18;;
17741;SDS011;8993;51.822;-2.268;2023-04-03T10:39:28;7.43;;;1.38;;
17741;SDS011;8993;51.822;-2.268;2023-04-03T10:44:31;7.39;;;1.48;;
17741;SDS011;8993;51.822;-2.268;2023-04-03T10:49:37;8.19;;;1.36;;
17741;SDS011;8993;51.822;-2.268;2023-04-03T10:54:38;9.81;;;1.52;;
17741;SDS011;8993;51.822;-2.268;2023-04-03T10:59:43;10.14;;;1.50;;
17741;SDS011;8993;51.822;-2.268;2023-04-03T11:04:46;6.91;;;1.32;;
17741;SDS011;8993;51.822;-2.268;2023-04-03T11:09:50;5.29;;;1.21;;
17741;SDS011;8993;51.822;-2.268;2023-04-03T11:14:54;6.51;;;1.33;;
17741;SDS011;8993;51.822;-2.268;2023-04-03T11:19:59;9.84;;;1.30;;
17741;SDS011;8993;51.822;-2.268;2023-04-03T11:25:03;7.90;;;1.32;;
17741;SDS011;8993;51.822;-2.268;2023-04-03T11:30:07;7.44;;;1.41;;
17741;SDS011;8993;51.822;-2.268;2023-04-03T11:35:10;7.01;;;1.68;;
17741;SDS011;8993;51.822;-2.268;2023-04-03T11:40:19;7.32;;;1.64;;
17741;SDS011;8993;51.822;-2.268;2023-04-03T11:45:31;11.94;;;2.05;;
17741;SDS011;8993;51.822;-2.268;2023-04-03T11:55:41;8.46;;;1.63;;
17741;SDS011;8993;51.822;-2.268;2023-04-03T12:05:34;9.69;;;1.97;;
17741;SDS011;8993;51.822;-2.268;2023-04-03T12:10:38;7.71;;;1.96;;
17741;SDS011;8993;51.822;-2.268;2023-04-03T12:15:47;7.95;;;2.10;;
17741;SDS011;8993;51.822;-2.268;2023-04-03T12:20:56;9.25;;;2.00;;
17741;SDS011;8993;51.822;-2.268;2023-04-03T12:25:52;6.70;;;1.86;;
17741;SDS011;8993;51.822;-2.268;2023-04-03T12:30:56;8.20;;;1.73;;
17741;SDS011;8993;51.822;-2.268;2023-04-03T12:36:03;9.73;;;1.93;;
17741;SDS011;8993;51.822;-2.268;2023-04-03T12:46:11;9.26;;;1.67;;
17741;SDS011;8993;51.822;-2.268;2023-04-03T12:51:13;7.83;;;1.43;;
17741;SDS011;8993;51.822;-2.268;2023-04-03T12:56:19;6.94;;;1.71;;
17741;SDS011;8993;51.822;-2.268;2023-04-03T13:01:21;9.70;;;1.72;;
17741;SDS011;8993;51.822;-2.268;2023-04-03T13:06:26;11.13;;;1.84;;
17741;SDS011;8993;51.822;-2.268;2023-04-03T13:11:32;6.92;;;1.66;;
17741;SDS011;8993;51.822;-2.268;2023-04-03T13:16:33;8.01;;;1.54;;
17741;SDS011;8993;51.822;-2.268;2023-04-03T13:21:37;7.27;;;1.52;;
17741;SDS011;8993;51.822;-2.268;2023-04-03T13:26:41;7.54;;;1.56;;
17741;SDS011;8993;51.822;-2.268;2023-04-03T13:31:46;7.79;;;1.42;;
17741;SDS011;8993;51.822;-2.268;2023-04-03T13:36:55;9.31;;;1.46;;
17741;SDS011;8993;51.822;-2.268;2023-04-03T13:41:55;5.59;;;1.41;;
17741;SDS011;8993;51.822;-2.268;2023-04-03T13:47:00;8.44;;;1.71;;
17741;SDS011;8993;51.822;-2.268;2023-04-03T13:52:17;8.54;;;1.51;;
17741;SDS011;8993;51.822;-2.268;2023-04-03T13:57:12;12.58;;;1.82;;
17741;SDS011;8993;51.822;-2.268;2023-04-03T14:02:14;10.14;;;1.57;;
17741;SDS011;8993;51.822;-2.268;2023-04-03T14:07:15;9.07;;;1.81;;
17741;SDS011;8993;51.822;-2.268;2023-04-03T14:12:21;7.42;;;1.55;;
17741;SDS011;8993;51.822;-2.268;2023-04-03T14:17:26;6.54;;;1.54;;
17741;SDS011;8993;51.822;-2.268;2023-04-03T14:22:31;5.94;;;1.64;;
17741;SDS011;8993;51.822;-2.268;2023-04-03T14:27:34;5.93;;;1.69;;
17741;SDS011;8993;51.822;-2.268;2023-04-03T14:32:38;8.57;;;1.96;;
17741;SDS011;8993;51.822;-2.268;2023-04-03T14:37:42;9.69;;;1.82;;
17741;SDS011;8993;51.822;-2.268;2023-04-03T14:42:46;9.56;;;1.72;;
17741;SDS011;8993;51.822;-2.268;2023-04-03T14:47:51;7.19;;;1.68;;
17741;SDS011;8993;51.822;-2.268;2023-04-03T14:52:55;7.95;;;1.69;;
17741;SDS011;8993;51.822;-2.268;2023-04-03T14:57:58;8.13;;;2.06;;
17741;SDS011;8993;51.822;-2.268;2023-04-03T15:03:02;7.44;;;1.85;;
17741;SDS011;8993;51.822;-2.268;2023-04-03T15:08:13;10.46;;;2.12;;
17741;SDS011;8993;51.822;-2.268;2023-04-03T15:13:13;7.18;;;1.73;;
17741;SDS011;8993;51.822;-2.268;2023-04-03T15:18:18;7.10;;;2.04;;
17741;SDS011;8993;51.822;-2.268;2023-04-03T15:23:21;6.61;;;1.89;;
17741;SDS011;8993;51.822;-2.268;2023-04-03T15:28:26;8.99;;;2.09;;
17741;SDS011;8993;51.822;-2.268;2023-04-03T15:33:29;9.19;;;2.00;;
17741;SDS011;8993;51.822;-2.268;2023-04-03T15:38:36;8.54;;;2.07;;
17741;SDS011;8993;51.822;-2.268;2023-04-03T15:43:40;6.50;;;1.77;;
17741;SDS011;8993;51.822;-2.268;2023-04-03T15:48:44;9.16;;;2.03;;
17741;SDS011;8993;51.822;-2.268;2023-04-03T15:53:48;7.41;;;1.96;;
17741;SDS011;8993;51.822;-2.268;2023-04-03T15:58:52;6.22;;;1.97;;
17741;SDS011;8993;51.822;-2.268;2023-04-03T16:03:56;6.70;;;1.75;;
17741;SDS011;8993;51.822;-2.268;2023-04-03T16:09:00;8.42;;;1.97;;
17741;SDS011;8993;51.822;-2.268;2023-04-03T16:14:05;6.88;;;1.79;;
17741;SDS011;8993;51.822;-2.268;2023-04-03T16:19:09;8.00;;;1.98;;
17741;SDS011;8993;51.822;-2.268;2023-04-03T16:24:14;7.85;;;1.99;;
17741;SDS011;8993;51.822;-2.268;2023-04-03T16:29:18;7.65;;;1.99;;
17741;SDS011;8993;51.822;-2.268;2023-04-03T16:34:22;8.67;;;1.88;;
17741;SDS011;8993;51.822;-2.268;2023-04-03T16:39:27;8.06;;;2.12;;
17741;SDS011;8993;51.822;-2.268;2023-04-03T16:44:31;7.45;;;1.84;;
17741;SDS011;8993;51.822;-2.268;2023-04-03T16:49:35;6.57;;;1.73;;
17741;SDS011;8993;51.822;-2.268;2023-04-03T16:54:40;7.39;;;2.21;;
17741;SDS011;8993;51.822;-2.268;2023-04-03T16:59:44;9.04;;;2.12;;
17741;SDS011;8993;51.822;-2.268;2023-04-03T17:04:49;8.97;;;2.07;;
17741;SDS011;8993;51.822;-2.268;2023-04-03T17:09:53;6.38;;;1.96;;
17741;SDS011;8993;51.822;-2.268;2023-04-03T17:14:57;9.44;;;2.12;;
17741;SDS011;8993;51.822;-2.268;2023-04-03T17:20:03;8.14;;;2.24;;
17741;SDS011;8993;51.822;-2.268;2023-04-03T17:25:06;9.27;;;2.25;;
17741;SDS011;8993;51.822;-2.268;2023-04-03T17:30:11;7.58;;;2.21;;
17741;SDS011;8993;51.822;-2.268;2023-04-03T17:35:15;7.48;;;2.20;;
17741;SDS011;8993;51.822;-2.268;2023-04-03T17:40:19;8.12;;;2.43;;
17741;SDS011;8993;51.822;-2.268;2023-04-03T17:45:23;9.05;;;2.13;;
17741;SDS011;8993;51.822;-2.268;2023-04-03T17:50:27;7.31;;;2.08;;
17741;SDS011;8993;51.822;-2.268;2023-04-03T17:55:31;9.28;;;2.07;;
17741;SDS011;8993;51.822;-2.268;2023-04-03T18:00:36;7.80;;;1.88;;
17741;SDS011;8993;51.822;-2.268;2023-04-03T18:05:40;6.74;;;2.18;;
17741;SDS011;8993;51.822;-2.268;2023-04-03T18:10:44;9.50;;;2.15;;
17741;SDS011;8993;51.822;-2.268;2023-04-03T18:15:48;6.04;;;1.71;;
17741;SDS011;8993;51.822;-2.268;2023-04-03T18:20:53;8.39;;;1.93;;
17741;SDS011;8993;51.822;-2.268;2023-04-03T18:25:57;8.99;;;1.88;;
17741;SDS011;8993;51.822;-2.268;2023-04-03T18:31:01;7.72;;;1.85;;
17741;SDS011;8993;51.822;-2.268;2023-04-03T18:36:05;7.64;;;1.98;;
17741;SDS011;8993;51.822;-2.268;2023-04-03T18:41:09;8.17;;;2.07;;
17741;SDS011;8993;51.822;-2.268;2023-04-03T18:46:13;6.60;;;1.88;;
17741;SDS011;8993;51.822;-2.268;2023-04-03T18:51:17;6.48;;;1.80;;
17741;SDS011;8993;51.822;-2.268;2023-04-03T18:56:21;4.90;;;1.72;;
17741;SDS011;8993;51.822;-2.268;2023-04-03T19:01:26;4.03;;;1.58;;
17741;SDS011;8993;51.822;-2.268;2023-04-03T19:06:31;6.13;;;1.67;;
17741;SDS011;8993;51.822;-2.268;2023-04-03T19:11:34;5.28;;;1.70;;
17741;SDS011;8993;51.822;-2.268;2023-04-03T19:16:38;10.80;;;2.14;;
17741;SDS011;8993;51.822;-2.268;2023-04-03T19:21:42;9.40;;;2.07;;
17741;SDS011;8993;51.822;-2.268;2023-04-03T19:26:46;7.20;;;2.28;;
17741;SDS011;8993;51.822;-2.268;2023-04-03T19:31:51;7.58;;;2.43;;
17741;SDS011;8993;51.822;-2.268;2023-04-03T19:36:57;6.94;;;2.07;;
17741;SDS011;8993;51.822;-2.268;2023-04-03T19:42:02;6.44;;;2.04;;
17741;SDS011;8993;51.822;-2.268;2023-04-03T19:47:06;6.68;;;2.40;;
17741;SDS011;8993;51.822;-2.268;2023-04-03T19:52:10;6.83;;;2.26;;
17741;SDS011;8993;51.822;-2.268;2023-04-03T19:57:14;9.26;;;3.03;;
17741;SDS011;8993;51.822;-2.268;2023-04-03T20:02:18;7.01;;;2.78;;
17741;SDS011;8993;51.822;-2.268;2023-04-03T20:07:22;9.30;;;3.74;;
17741;SDS011;8993;51.822;-2.268;2023-04-03T20:12:26;9.76;;;4.24;;
17741;SDS011;8993;51.822;-2.268;2023-04-03T20:17:30;12.02;;;4.47;;
17741;SDS011;8993;51.822;-2.268;2023-04-03T20:22:35;9.69;;;3.93;;
17741;SDS011;8993;51.822;-2.268;2023-04-03T20:27:38;6.82;;;3.14;;
17741;SDS011;8993;51.822;-2.268;2023-04-03T20:32:42;8.09;;;2.93;;
17741;SDS011;8993;51.822;-2.268;2023-04-03T20:37:47;9.29;;;2.68;;
17741;SDS011;8993;51.822;-2.268;2023-04-03T20:42:51;6.95;;;2.63;;
17741;SDS011;8993;51.822;-2.268;2023-04-03T20:47:55;8.80;;;3.01;;
17741;SDS011;8993;51.822;-2.268;2023-04-03T20:52:59;8.78;;;3.84;;
17741;SDS011;8993;51.822;-2.268;2023-04-03T20:58:03;7.38;;;2.71;;
17741;SDS011;8993;51.822;-2.268;2023-04-03T21:03:07;8.38;;;2.93;;
17741;SDS011;8993;51.822;-2.268;2023-04-03T21:23:24;5.94;;;1.60;;
17741;SDS011;8993;51.822;-2.268;2023-04-03T21:28:28;7.06;;;1.79;;
17741;SDS011;8993;51.822;-2.268;2023-04-03T21:33:32;5.75;;;1.88;;
17741;SDS011;8993;51.822;-2.268;2023-04-03T21:38:36;6.63;;;1.83;;
17741;SDS011;8993;51.822;-2.268;2023-04-03T21:43:40;5.28;;;1.55;;
17741;SDS011;8993;51.822;-2.268;2023-04-03T21:48:44;6.23;;;1.76;;
17741;SDS011;8993;51.822;-2.268;2023-04-03T21:53:50;6.24;;;1.71;;
17741;SDS011;8993;51.822;-2.268;2023-04-03T21:58:55;6.02;;;1.58;;
17741;SDS011;8993;51.822;-2.268;2023-04-03T22:03:59;5.86;;;1.53;;
17741;SDS011;8993;51.822;-2.268;2023-04-03T22:09:03;5.07;;;1.61;;
17741;SDS011;8993;51.822;-2.268;2023-04-03T22:14:08;6.15;;;1.42;;
17741;SDS011;8993;51.822;-2.268;2023-04-03T22:19:12;5.64;;;1.50;;
17741;SDS011;8993;51.822;-2.268;2023-04-03T22:24:16;6.34;;;1.64;;
17741;SDS011;8993;51.822;-2.268;2023-04-03T22:29:20;6.29;;;1.36;;
17741;SDS011;8993;51.822;-2.268;2023-04-03T22:34:24;4.00;;;1.26;;
17741;SDS011;8993;51.822;-2.268;2023-04-03T22:39:29;6.38;;;1.45;;
17741;SDS011;8993;51.822;-2.268;2023-04-03T22:44:33;6.67;;;1.37;;
17741;SDS011;8993;51.822;-2.268;2023-04-03T22:49:37;5.73;;;1.44;;
17741;SDS011;8993;51.822;-2.268;2023-04-03T22:54:41;5.18;;;1.36;;
17741;SDS011;8993;51.822;-2.268;2023-04-03T22:59:45;5.02;;;1.38;;
17741;SDS011;8993;51.822;-2.268;2023-04-03T23:04:49;5.12;;;1.42;;
17741;SDS011;8993;51.822;-2.268;2023-04-03T23:09:54;5.22;;;1.30;;
17741;SDS011;8993;51.822;-2.268;2023-04-03T23:14:58;5.56;;;1.44;;
17741;SDS011;8993;51.822;-2.268;2023-04-03T23:20:02;8.48;;;1.66;;
17741;SDS011;8993;51.822;-2.268;2023-04-03T23:25:07;5.49;;;1.56;;
17741;SDS011;8993;51.822;-2.268;2023-04-03T23:30:11;6.69;;;1.73;;
17741;SDS011;8993;51.822;-2.268;2023-04-03T23:35:15;6.27;;;1.81;;
17741;SDS011;8993;51.822;-2.268;2023-04-03T23:40:19;4.64;;;1.48;;
17741;SDS011;8993;51.822;-2.268;2023-04-03T23:45:23;7.18;;;2.06;;
17741;SDS011;8993;51.822;-2.268;2023-04-03T23:50:27;7.49;;;1.79;;
17741;SDS011;8993;51.822;-2.268;2023-04-03T23:55:31;6.80;;;2.15;;
